Terminal Aerodrome Forecast
Issued by NWS

Home | Current Version | Previous Version | Text Only | Print | Product List | Glossary Off
Versions: 1 2 3 4 5 6 7 8 9 10 11 12 13

454
FTUS43 KGRB 081738
TAFCWA
TAF
KCWA 081738Z 0818/0918 33012G20KT 6SM -SN OVC021
      TEMPO 0822/0902 2SM -SN OVC017
     FM090200 32012KT 6SM -SN BR OVC025 PROB30 0903/0909 5SM -SN BR
      OVC018
     FM091200 32010KT P6SM OVC025=

USA.gov is the U.S. government's official web portal to all federal, state and local government web resources and services.